Time;durP1;ratioP1;P1;durP2;ratioP2;P2;SDS_P1;SDS_P2;PMS_P1;PMS_P2;Temp;Humidity;BMP_temperature;BMP_pressure;BME280_temperature;BME280_humidity;BME280_pressure;Samples;Min_cycle;Max_cycle;Signal;HPM_P1;HPM_P2
2022/11/15 00:07:23;;;;;;;11.47;9.87;;;;;11.10;98698.00;;;;16606980;28;20219;-70
2022/11/15 00:15:44;;;;;;;7.30;6.60;;;;;11.70;98689.00;;;;16595178;28;20234;-70
2022/11/15 00:24:07;;;;;;;9.07;8.27;;;;;11.30;98690.00;;;;16613295;28;20723;-70
2022/11/15 00:32:31;;;;;;;11.47;10.27;;;;;10.70;98696.00;;;;16636924;28;20714;-70
2022/11/15 00:40:54;;;;;;;7.97;7.20;;;;;10.70;98681.00;;;;16634264;28;20226;-70
2022/11/15 00:49:15;;;;;;;8.57;7.37;;;;;11.00;98682.00;;;;16647230;28;20589;-70
2022/11/15 00:57:37;;;;;;;7.03;6.33;;;;;10.70;98660.00;;;;16632231;28;20231;-69
2022/11/15 01:06:00;;;;;;;9.00;7.80;;;;;10.30;98656.00;;;;16648732;28;20219;-69
2022/11/15 01:14:23;;;;;;;5.87;5.27;;;;;10.10;98662.00;;;;16642258;28;20706;-70
2022/11/15 01:22:44;;;;;;;5.93;5.40;;;;;10.30;98652.00;;;;16645373;28;20597;-69
2022/11/15 01:31:08;;;;;;;6.60;5.90;;;;;10.20;98646.00;;;;16636492;28;20238;-70
2022/11/15 01:39:29;;;;;;;7.33;6.50;;;;;10.00;98647.00;;;;16655868;28;20657;-68
2022/11/15 01:47:54;;;;;;;6.10;5.60;;;;;9.90;98643.00;;;;16660336;28;20226;-69
2022/11/15 01:56:18;;;;;;;5.43;5.03;;;;;10.50;98632.00;;;;16648171;28;20230;-71
2022/11/15 02:04:42;;;;;;;6.80;5.30;;;;;10.80;98630.00;;;;16657415;28;20275;-69
2022/11/15 02:13:04;;;;;;;6.50;5.90;;;;;10.60;98622.00;;;;16639094;28;20626;-69
2022/11/15 02:21:31;;;;;;;16.93;13.00;;;;;10.10;98614.00;;;;16631973;28;20238;-69
2022/11/15 02:30:16;;;;;;;6.00;5.30;;;;;9.60;98609.00;;;;16647183;28;20397;-68
2022/11/15 02:38:44;;;;;;;5.87;4.67;;;;;9.60;98606.00;;;;16641691;28;20571;-70
2022/11/15 02:47:16;;;;;;;8.13;6.13;;;;;9.50;98604.00;;;;16676490;28;20598;-72
2022/11/15 02:55:39;;;;;;;6.03;5.43;;;;;9.80;98585.00;;;;16625593;28;20239;-70
2022/11/15 03:04:10;;;;;;;7.20;6.47;;;;;9.80;98578.00;;;;16660248;28;20710;-70
2022/11/15 03:12:37;;;;;;;6.20;5.70;;;;;9.20;98582.00;;;;16645715;28;20216;-70
2022/11/15 03:21:00;;;;;;;7.17;5.80;;;;;9.80;98568.00;;;;16664575;28;20643;-70
2022/11/15 03:29:24;;;;;;;10.50;9.50;;;;;9.60;98563.00;;;;16645977;28;20210;-70
2022/11/15 03:37:50;;;;;;;9.30;8.30;;;;;9.90;98557.00;;;;16664180;28;20726;-69
2022/11/15 03:46:15;;;;;;;6.13;4.47;;;;;9.80;98552.00;;;;16653414;28;20316;-70
2022/11/15 03:54:45;;;;;;;10.23;9.00;;;;;10.10;98537.00;;;;16645710;28;20234;-70
2022/11/15 04:03:07;;;;;;;7.13;5.20;;;;;9.20;98550.00;;;;16644392;28;20260;-73
2022/11/15 04:11:30;;;;;;;7.03;5.90;;;;;10.10;98526.00;;;;16661825;28;20231;-71
2022/11/15 04:28:31;;;;;;;6.03;5.53;;;;;9.80;98535.00;;;;16657062;28;20703;-70
2022/11/15 04:45:34;;;;;;;9.07;8.20;;;;;10.50;98518.00;;;;16672114;28;20754;-71
2022/11/15 04:53:55;;;;;;;6.20;5.60;;;;;9.30;98520.00;;;;16666233;28;20725;-70
2022/11/15 05:02:18;;;;;;;6.67;5.97;;;;;9.40;98505.00;;;;16640312;28;20215;-70
2022/11/15 05:10:39;;;;;;;6.13;5.60;;;;;10.00;98498.00;;;;16645028;28;20226;-71
2022/11/15 05:19:02;;;;;;;7.20;5.73;;;;;10.30;98482.00;;;;16657420;28;20206;-71
2022/11/15 05:27:23;;;;;;;14.07;12.77;;;;;9.80;98490.00;;;;16660551;28;20223;-70
2022/11/15 05:35:50;;;;;;;8.57;6.83;;;;;9.60;98494.00;;;;16632036;28;20712;-71
2022/11/15 05:44:14;;;;;;;9.90;7.13;;;;;9.50;98491.00;;;;16591827;28;20222;-70
2022/11/15 05:52:38;;;;;;;16.40;10.10;;;;;10.10;98476.00;;;;16605184;28;20238;-71
2022/11/15 06:00:59;;;;;;;15.80;13.00;;;;;9.70;98487.00;;;;16622080;28;20230;-72
2022/11/15 06:09:22;;;;;;;7.27;6.57;;;;;9.70;98476.00;;;;16611178;28;20203;-72
2022/11/15 06:17:42;;;;;;;11.10;9.93;;;;;10.20;98477.00;;;;16635601;28;20230;-72
2022/11/15 06:26:05;;;;;;;14.40;12.90;;;;;10.20;98484.00;;;;16630077;28;20314;-70
2022/11/15 06:34:26;;;;;;;15.33;10.60;;;;;10.30;98481.00;;;;16607226;28;20255;-70
2022/11/15 06:42:49;;;;;;;12.40;11.20;;;;;9.80;98479.00;;;;16621876;28;20235;-70
2022/11/15 06:51:10;;;;;;;30.63;21.03;;;;;10.00;98491.00;;;;16628231;28;20223;-71
2022/11/15 06:59:32;;;;;;;11.40;10.30;;;;;10.30;98495.00;;;;16616112;28;20203;-70
2022/11/15 07:07:54;;;;;;;12.70;10.10;;;;;10.90;98485.00;;;;16620855;28;20509;-71
2022/11/15 07:16:16;;;;;;;12.37;11.07;;;;;11.10;98489.00;;;;16617230;28;20235;-70
2022/11/15 07:24:38;;;;;;;11.90;10.50;;;;;10.70;98489.00;;;;16619581;28;20223;-71
2022/11/15 07:33:01;;;;;;;11.37;10.27;;;;;10.70;98491.00;;;;16610116;28;20250;-71
2022/11/15 07:41:22;;;;;;;8.93;8.13;;;;;11.10;98486.00;;;;16608034;28;20230;-69
2022/11/15 07:49:45;;;;;;;10.30;8.67;;;;;11.60;98470.00;;;;16617824;28;20205;-70
2022/11/15 07:58:08;;;;;;;9.33;8.33;;;;;11.70;98457.00;;;;16616167;28;20233;-69
2022/11/15 08:06:30;;;;;;;8.10;7.33;;;;;12.10;98447.00;;;;16625468;28;20707;-70
2022/11/15 08:14:51;;;;;;;7.97;7.13;;;;;12.30;98445.00;;;;16613021;28;20762;-70
2022/11/15 08:23:14;;;;;;;7.90;7.10;;;;;12.30;98433.00;;;;16626766;28;20642;-71
2022/11/15 08:31:36;;;;;;;7.63;6.93;;;;;12.40;98432.00;;;;16636819;28;20343;-71
2022/11/15 08:39:58;;;;;;;7.80;7.10;;;;;12.90;98418.00;;;;16629422;28;20266;-70
2022/11/15 08:48:19;;;;;;;8.20;7.50;;;;;13.40;98413.00;;;;16620158;28;20713;-71
2022/11/15 08:56:42;;;;;;;9.57;7.73;;;;;13.70;98380.00;;;;16601402;28;20260;-70
2022/11/15 09:05:03;;;;;;;9.40;8.50;;;;;13.60;98387.00;;;;16619878;28;20225;-69
2022/11/15 09:13:25;;;;;;;8.10;7.30;;;;;14.30;98368.00;;;;16600217;28;20231;-70
2022/11/15 09:21:46;;;;;;;7.90;7.10;;;;;14.60;98374.00;;;;16615348;28;20254;-71
2022/11/15 09:30:10;;;;;;;9.83;8.80;;;;;13.70;98364.00;;;;16614243;28;20218;-72
2022/11/15 09:38:30;;;;;;;9.77;8.87;;;;;14.60;98367.00;;;;16601472;28;20710;-71
2022/11/15 09:46:58;;;;;;;9.43;7.70;;;;;15.90;98357.00;;;;16634818;28;20305;-73
2022/11/15 09:55:21;;;;;;;12.73;9.90;;;;;16.30;98341.00;;;;16608793;28;20242;-75
2022/11/15 10:03:28;;;;;;;9.17;8.03;;;;;16.20;98331.00;;;;16609846;28;20218;-72
2022/11/15 10:11:33;;;;;;;11.17;9.30;;;;;15.80;98333.00;;;;16607626;28;20301;-72
2022/11/15 10:19:43;;;;;;;14.10;9.73;;;;;15.90;98332.00;;;;16643082;28;20553;-73
2022/11/15 10:27:52;;;;;;;10.23;9.10;;;;;15.80;98317.00;;;;16625592;28;20280;-75
2022/11/15 10:36:31;;;;;;;9.33;8.40;;;;;15.90;98305.00;;;;16624860;28;20215;-72
2022/11/15 10:44:43;;;;;;;12.40;7.87;;;;;16.00;98291.00;;;;16604437;28;20230;-72
2022/11/15 10:52:48;;;;;;;8.53;7.60;;;;;16.20;98284.00;;;;16610488;28;20231;-74
2022/11/15 11:00:58;;;;;;;10.80;9.23;;;;;16.10;98272.00;;;;16608276;28;21255;-74
2022/11/15 11:09:03;;;;;;;11.13;8.47;;;;;16.30;98268.00;;;;16617121;28;20262;-72
2022/11/15 11:17:14;;;;;;;10.70;9.27;;;;;16.20;98266.00;;;;16629479;28;20258;-75
2022/11/15 11:25:24;;;;;;;11.13;8.37;;;;;16.40;98264.00;;;;16650814;28;20276;-74
2022/11/15 11:33:32;;;;;;;10.97;7.47;;;;;16.80;98254.00;;;;16620534;28;20598;-73
2022/11/15 11:41:48;;;;;;;10.27;8.30;;;;;16.90;98251.00;;;;16610985;28;20230;-74
2022/11/15 11:49:54;;;;;;;7.27;6.43;;;;;17.00;98226.00;;;;16602934;28;20204;-72
2022/11/15 11:58:09;;;;;;;10.63;7.03;;;;;17.20;98216.00;;;;16602707;28;20231;-73
2022/11/15 12:06:22;;;;;;;9.00;7.90;;;;;17.20;98215.00;;;;16619470;28;20294;-73
2022/11/15 12:14:32;;;;;;;12.53;8.57;;;;;17.70;98204.00;;;;16610677;28;20722;-71
2022/11/15 12:22:40;;;;;;;9.40;7.60;;;;;17.50;98191.00;;;;16628083;28;20323;-78
2022/11/15 12:30:45;;;;;;;8.87;6.17;;;;;17.40;98177.00;;;;16647749;28;20541;-74
2022/11/15 12:39:00;;;;;;;7.00;6.30;;;;;17.40;98180.00;;;;16636813;28;20257;-75
2022/11/15 12:47:10;;;;;;;11.73;8.10;;;;;17.80;98190.00;;;;16612283;28;20695;-73
2022/11/15 12:55:33;;;;;;;10.17;7.60;;;;;17.80;98175.00;;;;16620596;28;20262;-72
2022/11/15 13:03:36;;;;;;;10.00;7.70;;;;;17.70;98162.00;;;;16624403;28;20206;-72
2022/11/15 13:11:54;;;;;;;9.80;7.00;;;;;17.10;98154.00;;;;16622734;28;20226;-74
2022/11/15 13:20:01;;;;;;;8.37;6.77;;;;;16.90;98145.00;;;;16611063;28;20296;-72
2022/11/15 13:28:12;;;;;;;12.87;7.47;;;;;16.90;98131.00;;;;16611572;28;20214;-73
2022/11/15 13:36:17;;;;;;;8.57;7.67;;;;;17.00;98125.00;;;;16630256;28;20541;-72
2022/11/15 13:44:23;;;;;;;10.57;8.73;;;;;17.10;98115.00;;;;16601416;28;20238;-72
2022/11/15 13:52:30;;;;;;;8.20;7.40;;;;;16.80;98099.00;;;;16622021;28;20837;-70
2022/11/15 14:00:38;;;;;;;8.70;6.83;;;;;16.70;98091.00;;;;16609961;28;20780;-70
2022/11/15 14:08:41;;;;;;;12.40;7.70;;;;;16.70;98073.00;;;;16640876;28;20193;-70
2022/11/15 14:16:46;;;;;;;11.27;7.00;;;;;16.70;98065.00;;;;16628648;28;20622;-73
2022/11/15 14:25:07;;;;;;;9.93;6.90;;;;;16.90;98048.00;;;;16613798;28;20686;-75
2022/11/15 14:33:22;;;;;;;12.40;11.20;;;;;16.50;98040.00;;;;16652285;28;20384;-71
2022/11/15 14:41:26;;;;;;;15.47;13.70;;;;;16.60;98032.00;;;;16645919;28;20344;-72
2022/11/15 14:49:30;;;;;;;12.53;9.93;;;;;16.70;98025.00;;;;16643400;28;20210;-74
2022/11/15 14:57:32;;;;;;;10.87;8.93;;;;;16.50;98022.00;;;;16629836;28;20235;-72
2022/11/15 15:05:38;;;;;;;9.30;8.00;;;;;16.80;98003.00;;;;16643246;28;20823;-72
2022/11/15 15:13:40;;;;;;;7.50;6.90;;;;;16.80;98003.00;;;;16632430;28;20234;-72
2022/11/15 15:21:44;;;;;;;11.13;7.17;;;;;16.60;97991.00;;;;16637365;28;20506;-72
2022/11/15 15:29:47;;;;;;;9.10;6.87;;;;;16.10;97977.00;;;;16641493;28;20317;-74
2022/11/15 15:37:51;;;;;;;8.83;7.53;;;;;18.30;97959.00;;;;16685475;28;20315;-76
2022/11/15 15:45:53;;;;;;;10.80;7.73;;;;;18.60;97934.00;;;;16650384;28;20741;-77
2022/11/15 15:53:57;;;;;;;16.60;14.77;;;;;19.10;97932.00;;;;16658112;28;20230;-76
2022/11/15 16:02:00;;;;;;;8.63;7.13;;;;;19.40;97916.00;;;;16634912;28;20236;-76
2022/11/15 16:10:09;;;;;;;8.30;7.50;;;;;20.50;97904.00;;;;16615996;28;20207;-75
2022/11/15 16:18:17;;;;;;;8.60;7.00;;;;;21.10;97896.00;;;;16625640;28;20227;-76
2022/11/15 16:26:22;;;;;;;10.77;8.53;;;;;17.80;97894.00;;;;16639542;28;20219;-78
2022/11/15 16:34:25;;;;;;;10.17;8.27;;;;;16.70;97883.00;;;;16647456;28;20326;-78
2022/11/15 16:42:29;;;;;;;7.70;6.90;;;;;16.40;97883.00;;;;16656502;28;20320;-77
2022/11/15 16:50:34;;;;;;;12.40;8.60;;;;;16.10;97885.00;;;;16656408;22;20273;-84
2022/11/15 16:58:38;;;;;;;10.30;8.80;;;;;15.90;97874.00;;;;16639659;28;20250;-84
2022/11/15 17:06:41;;;;;;;11.77;8.37;;;;;16.00;97877.00;;;;16617287;23;20398;-48
2022/11/15 17:14:45;;;;;;;10.03;7.90;;;;;16.00;97858.00;;;;16553277;28;20314;-49
2022/11/15 17:22:48;;;;;;;10.67;8.30;;;;;15.90;97853.00;;;;16532536;28;20295;-48
2022/11/15 17:30:53;;;;;;;8.47;7.57;;;;;15.90;97850.00;;;;16596281;28;20210;-48
2022/11/15 17:38:56;;;;;;;9.33;7.73;;;;;16.10;97838.00;;;;16591759;28;20272;-48
2022/11/15 17:46:59;;;;;;;9.30;8.20;;;;;15.80;97840.00;;;;16597705;28;20219;-48
2022/11/15 17:55:02;;;;;;;9.13;8.30;;;;;15.60;97831.00;;;;16566552;28;20221;-48
2022/11/15 18:03:08;;;;;;;10.33;8.30;;;;;15.60;97822.00;;;;16592757;28;20208;-48
2022/11/15 18:11:13;;;;;;;16.63;8.00;;;;;15.60;97834.00;;;;16556876;28;20211;-48
2022/11/15 18:19:17;;;;;;;9.03;8.13;;;;;15.70;97816.00;;;;16573388;28;20226;-48
2022/11/15 18:27:19;;;;;;;16.53;8.70;;;;;15.60;97818.00;;;;16585146;28;20234;-49
2022/11/15 18:35:23;;;;;;;12.67;9.47;;;;;15.60;97815.00;;;;16602024;28;20742;-49
2022/11/15 18:43:26;;;;;;;9.83;8.87;;;;;15.70;97815.00;;;;16580850;28;20269;-48
2022/11/15 18:51:31;;;;;;;14.50;8.03;;;;;15.80;97814.00;;;;16586232;28;20211;-48
2022/11/15 18:59:33;;;;;;;11.77;10.53;;;;;15.80;97817.00;;;;16572260;28;21015;-48
2022/11/15 19:07:37;;;;;;;18.00;12.43;;;;;15.00;97815.00;;;;16579927;28;20259;-49
2022/11/15 19:15:40;;;;;;;11.23;9.67;;;;;15.70;97798.00;;;;16557404;28;20608;-48
2022/11/15 19:23:44;;;;;;;11.17;9.80;;;;;16.00;97805.00;;;;16569513;28;20223;-49
2022/11/15 19:31:47;;;;;;;10.57;9.47;;;;;16.00;97791.00;;;;16581170;28;20211;-49
2022/11/15 19:39:51;;;;;;;13.27;11.33;;;;;14.50;97786.00;;;;16542875;28;20873;-49
2022/11/15 19:47:54;;;;;;;9.43;8.53;;;;;13.90;97780.00;;;;16556492;28;20303;-48
2022/11/15 19:55:59;;;;;;;18.87;15.43;;;;;14.40;97777.00;;;;16552747;28;20226;-48
2022/11/15 20:04:01;;;;;;;8.23;7.37;;;;;14.80;97757.00;;;;16551280;28;20220;-48
2022/11/15 20:12:05;;;;;;;11.27;10.10;;;;;13.80;97758.00;;;;16546406;28;20222;-49
2022/11/15 20:20:10;;;;;;;14.33;12.87;;;;;14.00;97747.00;;;;16563449;28;20246;-48
2022/11/15 20:28:17;;;;;;;12.20;10.90;;;;;13.90;97729.00;;;;16545714;28;20836;-48
2022/11/15 20:36:20;;;;;;;12.13;10.33;;;;;13.20;97735.00;;;;16548786;28;20239;-48
2022/11/15 20:44:23;;;;;;;22.77;11.60;;;;;13.20;97727.00;;;;16544828;28;20741;-49
2022/11/15 20:52:26;;;;;;;10.90;9.90;;;;;13.40;97728.00;;;;16548340;28;20281;-49
2022/11/15 21:00:30;;;;;;;10.97;9.63;;;;;13.60;97721.00;;;;16562873;28;20215;-49
2022/11/15 21:12:09;;;;;;;12.17;10.03;;;;;13.40;97711.00;;;;16570678;28;20702;-48
2022/11/15 21:16:58;;;;;;;15.63;12.30;;;;;13.10;97705.00;;;;16581845;28;20231;-48
2022/11/15 21:25:00;;;;;;;12.03;10.20;;;;;13.30;97695.00;;;;16582088;28;20222;-48
2022/11/15 21:33:04;;;;;;;12.53;11.23;;;;;13.40;97681.00;;;;16575846;28;20728;-48
2022/11/15 21:41:07;;;;;;;21.67;18.03;;;;;14.10;97660.00;;;;16580249;28;20588;-48
2022/11/15 21:49:11;;;;;;;13.90;11.63;;;;;13.30;97659.00;;;;16550031;28;20218;-48
2022/11/15 21:57:13;;;;;;;20.97;17.63;;;;;13.00;97662.00;;;;16523739;28;20242;-48
2022/11/15 22:05:17;;;;;;;11.30;10.23;;;;;13.20;97653.00;;;;16524993;28;20234;-48
2022/11/15 22:13:20;;;;;;;9.40;8.50;;;;;13.00;97645.00;;;;16523238;28;20231;-48
2022/11/15 22:21:24;;;;;;;11.53;8.70;;;;;12.90;97644.00;;;;16582143;28;20203;-49
2022/11/15 22:29:27;;;;;;;8.40;7.50;;;;;13.00;97641.00;;;;16576291;28;20220;-48
2022/11/15 22:37:31;;;;;;;8.33;7.53;;;;;13.50;97645.00;;;;16585449;28;20249;-48
2022/11/15 22:45:33;;;;;;;13.20;11.87;;;;;13.70;97633.00;;;;16597186;28;20266;-48
2022/11/15 22:53:37;;;;;;;20.60;18.83;;;;;13.90;97633.00;;;;16584436;28;20293;-49
2022/11/15 23:01:40;;;;;;;10.73;9.73;;;;;13.70;97635.00;;;;16591945;28;20214;-49
2022/11/15 23:09:44;;;;;;;7.87;7.20;;;;;13.10;97649.00;;;;16604027;28;20565;-49
2022/11/15 23:17:46;;;;;;;8.80;7.93;;;;;13.20;97637.00;;;;16606427;28;20230;-48
2022/11/15 23:25:58;;;;;;;11.67;8.77;;;;;13.70;97635.00;;;;16590357;28;20584;-48
2022/11/15 23:34:00;;;;;;;15.80;11.40;;;;;13.90;97618.00;;;;16676979;22;20259;-49
2022/11/15 23:42:04;;;;;;;16.40;13.73;;;;;13.70;97614.00;;;;16712421;28;21902;-48
2022/11/15 23:50:08;;;;;;;10.77;9.77;;;;;13.30;97619.00;;;;16654125;28;20207;-49
2022/11/15 23:58:12;;;;;;;11.53;10.43;;;;;13.10;97623.00;;;;16652633;28;20226;-49
